Time;durP1;ratioP1;P1;durP2;ratioP2;P2;SDS_P1;SDS_P2;PMS_P1;PMS_P2;Temp;Humidity;BMP_temperature;BMP_pressure;BME280_temperature;BME280_humidity;BME280_pressure;Samples;Min_cycle;Max_cycle;Signal;HPM_P1;HPM_P2
2022/08/31 00:04:10;;;;;;;6.63;2.95;;;;;;;19.54;59.18;102325.16;6139318;23;20575;-65
2022/08/31 00:06:39;;;;;;;4.75;2.80;;;;;;;19.79;57.91;102321.63;6138695;23;20009;-65
2022/08/31 00:09:06;;;;;;;3.33;2.55;;;;;;;19.65;58.06;102320.75;6131979;23;20479;-66
2022/08/31 00:11:34;;;;;;;4.35;2.35;;;;;;;19.49;58.33;102326.94;6126315;23;20016;-64
2022/08/31 00:14:23;;;;;;;6.60;2.63;;;;;;;19.82;57.27;102330.41;6137465;23;20092;-65
2022/08/31 00:16:48;;;;;;;5.47;2.50;;;;;;;19.62;57.24;102315.47;6134456;23;20484;-66
2022/08/31 00:19:14;;;;;;;3.80;2.45;;;;;;;19.77;56.88;102321.59;6143264;23;20596;-65
2022/08/31 00:21:39;;;;;;;4.05;2.67;;;;;;;19.52;57.52;102322.50;6153937;23;20005;-64
2022/08/31 00:24:05;;;;;;;3.33;2.60;;;;;;;19.71;56.86;102321.63;6133249;23;20071;-65
2022/08/31 00:26:31;;;;;;;7.30;2.80;;;;;;;19.73;56.48;102321.63;6137914;23;20005;-67
2022/08/31 00:28:59;;;;;;;8.65;2.55;;;;;;;19.80;56.43;102326.03;6114226;23;20160;-65
2022/08/31 00:31:26;;;;;;;6.22;2.65;;;;;;;19.54;56.86;102325.16;6140892;23;20498;-65
2022/08/31 00:33:51;;;;;;;3.85;2.60;;;;;;;19.63;56.66;102314.59;6135439;23;20012;-64
2022/08/31 00:36:29;;;;;;;3.65;2.40;;;;;;;19.48;56.57;102326.06;6130563;23;20047;-65
2022/08/31 00:38:55;;;;;;;3.50;2.40;;;;;;;19.59;56.40;102321.63;6136216;23;20060;-64
2022/08/31 00:41:29;;;;;;;3.97;2.47;;;;;;;19.33;56.96;102321.59;6136141;23;20095;-65
2022/08/31 00:43:58;;;;;;;4.53;2.58;;;;;;;19.45;56.55;102326.03;6139538;23;20708;-64
2022/08/31 00:46:30;;;;;;;9.38;2.45;;;;;;;19.46;56.33;102319.88;6136508;23;20044;-66
2022/08/31 00:48:58;;;;;;;4.05;2.47;;;;;;;19.19;56.92;102319.84;6143080;23;20028;-64
2022/08/31 00:51:26;;;;;;;4.82;2.47;;;;;;;19.37;56.09;102320.75;6138193;23;20019;-64
2022/08/31 00:53:54;;;;;;;2.67;2.08;;;;;;;19.34;56.00;102318.06;6131112;23;20017;-64
2022/08/31 00:56:20;;;;;;;3.13;2.17;;;;;;;19.41;55.69;102318.97;6158208;23;20009;-65
2022/08/31 00:58:46;;;;;;;2.97;2.38;;;;;;;19.18;56.20;102326.00;6128805;23;20016;-65
2022/08/31 01:01:13;;;;;;;3.47;2.40;;;;;;;19.36;55.59;102326.03;6137548;23;20036;-64
2022/08/31 01:03:40;;;;;;;3.70;2.20;;;;;;;19.37;55.34;102330.44;6125680;23;20009;-64
2022/08/31 01:06:06;;;;;;;4.18;2.17;;;;;;;19.41;55.25;102330.44;6136883;23;20091;-64
2022/08/31 01:08:32;;;;;;;2.88;2.25;;;;;;;19.39;55.15;102329.53;6133474;23;20068;-65
2022/08/31 01:10:58;;;;;;;4.35;2.40;;;;;;;19.22;55.60;102333.94;6131761;23;20017;-64
2022/08/31 01:13:31;;;;;;;4.63;2.33;;;;;;;19.22;55.49;102330.41;6131477;23;20104;-62
2022/08/31 01:16:02;;;;;;;6.20;2.50;;;;;;;19.24;55.75;102328.66;6126357;23;20124;-64
2022/08/31 01:18:29;;;;;;;4.97;2.30;;;;;;;19.00;56.22;102335.69;6168952;23;20032;-64
2022/08/31 01:21:13;;;;;;;3.22;2.10;;;;;;;19.17;55.73;102325.13;6136134;23;20015;-65
2022/08/31 01:23:41;;;;;;;;;;;;;;;19.24;55.56;102323.38;6121552;23;20017;-65
2022/08/31 01:26:08;;;;;;;6.38;2.40;;;;;;;19.29;55.44;102318.97;6141021;23;19912;-64
2022/08/31 01:28:37;;;;;;;7.80;2.30;;;;;;;19.11;55.77;102327.75;6132407;23;20013;-65
2022/08/31 01:31:08;;;;;;;5.93;2.58;;;;;;;19.25;55.57;102319.84;6150399;23;20009;-65
2022/08/31 01:33:42;;;;;;;4.28;2.50;;;;;;;18.91;56.04;102322.44;6118695;23;20013;-65
2022/08/31 01:36:08;;;;;;;3.57;2.40;;;;;;;18.85;56.45;102324.19;6163692;23;20017;-64
2022/08/31 01:38:35;;;;;;;3.10;2.03;;;;;;;19.15;55.73;102321.59;6160516;23;20005;-65
2022/08/31 01:41:02;;;;;;;4.72;2.47;;;;;;;19.05;56.18;102315.41;6123148;23;20013;-63
2022/08/31 01:43:29;;;;;;;4.85;2.30;;;;;;;18.96;56.16;102326.00;6130697;23;20055;-65
2022/08/31 01:45:55;;;;;;;5.40;2.50;;;;;;;18.77;56.61;102329.47;6130542;23;20041;-64
2022/08/31 01:48:21;;;;;;;3.90;2.28;;;;;;;18.90;56.23;102319.81;6134155;23;20087;-64
2022/08/31 01:50:47;;;;;;;5.25;2.42;;;;;;;18.92;56.19;102320.69;6138900;23;20036;-64
2022/08/31 01:53:14;;;;;;;3.60;2.20;;;;;;;18.71;56.71;102329.44;6134292;23;20009;-64
2022/08/31 01:55:40;;;;;;;5.55;2.20;;;;;;;18.84;56.56;102325.09;6121576;23;20322;-65
2022/08/31 01:58:06;;;;;;;4.28;2.50;;;;;;;18.70;56.75;102335.59;6133285;23;20103;-65
2022/08/31 02:00:32;;;;;;;3.00;2.30;;;;;;;18.87;56.32;102325.97;6139164;23;20001;-64
2022/08/31 02:03:00;;;;;;;2.95;2.10;;;;;;;18.96;56.04;102323.34;6160330;23;20027;-65
2022/08/31 02:05:27;;;;;;;3.95;2.40;;;;;;;18.86;56.30;102326.84;6149098;23;20443;-66
2022/08/31 02:07:54;;;;;;;6.13;2.38;;;;;;;18.56;56.82;102330.28;6138603;23;20009;-65
2022/08/31 02:10:20;;;;;;;4.72;2.22;;;;;;;18.75;56.54;102330.31;6140542;23;20012;-65
2022/08/31 02:12:46;;;;;;;6.25;2.20;;;;;;;18.91;56.27;102330.38;6134241;23;20526;-66
2022/08/31 02:15:11;;;;;;;4.10;2.33;;;;;;;18.88;56.27;102338.31;6135360;23;20070;-64
2022/08/31 02:17:37;;;;;;;4.07;2.38;;;;;;;18.60;56.93;102331.19;6132689;23;20009;-65
2022/08/31 02:20:08;;;;;;;4.15;2.55;;;;;;;18.54;57.07;102331.97;6128374;23;20052;-65
2022/08/31 02:22:33;;;;;;;4.20;2.50;;;;;;;18.57;57.07;102328.50;6135634;23;20009;-64
2022/08/31 02:25:01;;;;;;;4.03;2.40;;;;;;;18.58;57.25;102325.00;6158691;23;20016;-65
2022/08/31 02:27:27;;;;;;;4.43;2.45;;;;;;;18.42;57.62;102337.22;6131870;23;20012;-65
2022/08/31 02:29:53;;;;;;;3.78;2.25;;;;;;;18.55;57.33;102332.91;6128383;23;20008;-65
2022/08/31 02:32:26;;;;;;;4.75;2.30;;;;;;;18.53;57.46;102337.28;6138818;23;20013;-65
2022/08/31 02:34:51;;;;;;;3.70;2.30;;;;;;;18.61;57.03;102330.28;6129652;23;20009;-65
2022/08/31 02:37:18;;;;;;;5.25;2.50;;;;;;;18.68;56.84;102326.78;6131747;23;20143;-64
2022/08/31 02:39:43;;;;;;;3.72;2.40;;;;;;;18.29;58.09;102322.22;6132924;23;20343;-65
2022/08/31 02:42:08;;;;;;;4.43;2.40;;;;;;;18.37;57.88;102327.50;6128409;23;20392;-64
2022/08/31 02:44:34;;;;;;;3.58;2.53;;;;;;;18.52;57.55;102322.31;6137013;23;20476;-64
2022/08/31 02:46:59;;;;;;;4.22;2.30;;;;;;;18.49;57.40;102325.81;6139677;23;20005;-66
2022/08/31 02:49:25;;;;;;;3.10;2.28;;;;;;;18.47;57.29;102330.22;6127845;23;20075;-65
2022/08/31 02:51:50;;;;;;;3.88;2.30;;;;;;;18.58;57.31;102328.53;6141219;23;20040;-64
2022/08/31 02:54:16;;;;;;;4.78;2.45;;;;;;;18.56;57.55;102322.34;6127645;23;20044;-64
2022/08/31 02:56:41;;;;;;;3.33;2.35;;;;;;;18.37;57.99;102330.16;6163467;23;20005;-64
2022/08/31 02:59:07;;;;;;;4.25;2.60;;;;;;;18.59;57.39;102327.66;6127381;23;20826;-66
2022/08/31 03:01:36;;;;;;;3.42;2.30;;;;;;;18.35;58.20;102319.59;6121310;23;20009;-65
2022/08/31 03:04:02;;;;;;;5.72;2.30;;;;;;;18.25;58.45;102326.59;6138775;23;20012;-65
2022/08/31 03:06:30;;;;;;;4.80;2.88;;;;;;;18.51;57.78;102328.47;6135901;23;20009;-67
2022/08/31 03:08:58;;;;;;;4.78;2.50;;;;;;;18.54;57.70;102323.19;6131554;23;20012;-64
2022/08/31 03:11:27;;;;;;;3.35;2.40;;;;;;;18.17;58.58;102328.31;6138137;23;20349;-65
2022/08/31 03:13:52;;;;;;;2.80;2.40;;;;;;;18.42;58.19;102333.72;6134719;23;20083;-66
2022/08/31 03:16:19;;;;;;;4.15;2.78;;;;;;;18.28;58.71;102325.72;6140479;23;20016;-64
2022/08/31 03:18:45;;;;;;;3.63;2.47;;;;;;;18.27;58.73;102325.72;6131297;23;20422;-63
2022/08/31 03:21:10;;;;;;;3.30;2.60;;;;;;;18.29;58.56;102324.84;6138796;23;20012;-63
2022/08/31 03:23:37;;;;;;;4.03;2.40;;;;;;;18.14;59.03;102320.38;6152905;23;20009;-64
2022/08/31 03:26:04;;;;;;;4.22;2.40;;;;;;;18.04;59.45;102329.13;6116681;23;20011;-65
2022/08/31 03:28:31;;;;;;;4.57;2.50;;;;;;;18.19;58.82;102330.94;6142041;23;20503;-64
2022/08/31 03:30:57;;;;;;;4.10;2.45;;;;;;;18.07;59.08;102329.13;6105590;23;20405;-64
2022/08/31 03:33:23;;;;;;;9.00;2.70;;;;;;;18.10;58.99;102333.56;6137438;23;20120;-64
2022/08/31 03:35:49;;;;;;;3.95;2.45;;;;;;;18.28;58.57;102333.66;6127854;23;20781;-64
2022/08/31 03:38:15;;;;;;;3.78;2.53;;;;;;;18.28;58.23;102333.66;6159299;23;20067;-64
2022/08/31 03:40:42;;;;;;;4.60;2.50;;;;;;;18.06;59.14;102340.56;6134846;23;20377;-65
2022/08/31 03:43:10;;;;;;;5.43;2.25;;;;;;;18.21;58.54;102340.66;6135028;23;20443;-65
2022/08/31 03:45:39;;;;;;;4.03;2.35;;;;;;;18.12;58.48;102343.22;6140151;23;20159;-65
2022/08/31 03:48:20;;;;;;;4.40;2.50;;;;;;;17.75;59.33;102341.22;6152961;23;20016;-65
2022/08/31 03:50:46;;;;;;;4.25;2.50;;;;;;;18.23;58.17;102338.03;6167497;23;20059;-65
2022/08/31 03:53:11;;;;;;;5.07;2.45;;;;;;;18.06;58.40;102343.19;6138877;23;20008;-64
2022/08/31 03:55:40;;;;;;;4.07;2.33;;;;;;;18.18;57.84;102337.97;6104353;23;20350;-64
2022/08/31 03:58:07;;;;;;;4.60;2.40;;;;;;;17.98;58.38;102350.19;6146885;23;20143;-64
2022/08/31 04:00:34;;;;;;;7.32;2.40;;;;;;;17.94;58.69;102348.41;6131567;23;20028;-64
2022/08/31 04:03:00;;;;;;;6.20;2.50;;;;;;;18.02;58.08;102353.72;6141643;23;20024;-65
2022/08/31 04:05:27;;;;;;;4.18;2.60;;;;;;;18.06;58.22;102356.38;6135587;23;20577;-64
2022/08/31 04:07:56;;;;;;;3.70;2.40;;;;;;;18.10;57.87;102359.94;6136718;23;20011;-65
2022/08/31 04:10:22;;;;;;;3.42;2.53;;;;;;;18.24;57.05;102352.97;6140404;23;20009;-64
2022/08/31 04:12:49;;;;;;;4.07;2.60;;;;;;;18.06;57.46;102351.09;6138207;23;20088;-65
2022/08/31 04:15:17;;;;;;;5.57;2.50;;;;;;;17.72;58.23;102346.50;6141329;23;20397;-64
2022/08/31 04:17:46;;;;;;;3.80;2.42;;;;;;;18.13;57.34;102354.66;6128834;23;20606;-64
2022/08/31 04:20:12;;;;;;;4.05;2.40;;;;;;;18.00;56.77;102345.78;6131347;23;20009;-67
2022/08/31 04:22:37;;;;;;;3.25;2.40;;;;;;;17.92;57.25;102355.44;6138936;23;20024;-64
2022/08/31 04:25:03;;;;;;;4.60;2.60;;;;;;;17.88;57.54;102352.75;6156757;23;20020;-65
2022/08/31 04:27:29;;;;;;;8.88;2.80;;;;;;;17.74;57.21;102350.91;6127840;23;20009;-65
2022/08/31 04:30:14;;;;;;;6.07;2.30;;;;;;;17.80;57.45;102360.63;6155901;23;20013;-64
2022/08/31 04:32:43;;;;;;;4.15;2.33;;;;;;;18.18;56.25;102356.47;6138039;23;20008;-66
2022/08/31 04:35:09;;;;;;;3.13;2.20;;;;;;;18.01;56.49;102360.75;6131585;23;20009;-65
2022/08/31 04:37:34;;;;;;;4.28;2.30;;;;;;;18.01;56.50;102359.88;6130339;23;20023;-65
2022/08/31 04:40:03;;;;;;;5.10;2.22;;;;;;;17.57;57.41;102363.03;6139538;23;20009;-66
2022/08/31 04:42:29;;;;;;;3.55;1.98;;;;;;;18.06;55.96;102353.75;6140182;23;20353;-65
2022/08/31 04:44:54;;;;;;;3.97;2.33;;;;;;;17.93;56.31;102356.31;6134454;23;20059;-65
2022/08/31 04:47:20;;;;;;;3.08;2.00;;;;;;;18.05;55.83;102365.16;6163738;23;20067;-67
2022/08/31 04:49:47;;;;;;;7.38;2.40;;;;;;;17.91;56.06;102360.69;6144489;23;20015;-65
2022/08/31 04:52:12;;;;;;;4.28;1.98;;;;;;;17.98;55.56;102362.50;6140065;23;20012;-65
2022/08/31 04:54:37;;;;;;;4.35;1.90;;;;;;;17.96;55.35;102353.69;6134832;23;20017;-65
2022/08/31 04:57:03;;;;;;;2.50;1.85;;;;;;;17.94;54.97;102363.34;6136177;23;20005;-64
2022/08/31 04:59:28;;;;;;;3.22;1.80;;;;;;;18.00;54.74;102366.91;6133424;23;20016;-64
2022/08/31 05:01:57;;;;;;;3.25;2.00;;;;;;;18.04;54.02;102362.53;6133113;23;20020;-63
2022/08/31 05:04:23;;;;;;;3.97;1.88;;;;;;;18.01;54.01;102365.16;6139682;23;20004;-64
2022/08/31 05:06:50;;;;;;;3.80;1.73;;;;;;;17.74;53.89;102369.38;6140500;23;20451;-65
2022/08/31 05:09:21;;;;;;;5.10;1.60;;;;;;;17.89;53.69;102365.94;6140832;23;20330;-64
2022/08/31 05:11:51;;;;;;;2.58;1.52;;;;;;;18.02;52.96;102366.91;6129934;23;20009;-64
2022/08/31 05:14:17;;;;;;;3.92;1.40;;;;;;;18.02;52.11;102372.19;6165343;23;20012;-65
2022/08/31 05:16:43;;;;;;;6.93;1.48;;;;;;;17.99;52.14;102372.19;6161812;23;20012;-66
2022/08/31 05:19:08;;;;;;;3.97;1.45;;;;;;;17.81;51.68;102368.53;6132861;23;20738;-65
2022/08/31 05:21:37;;;;;;;3.40;1.50;;;;;;;18.05;51.04;102381.00;6138756;23;20028;-65
2022/08/31 05:24:23;;;;;;;3.25;1.38;;;;;;;18.09;51.05;102374.91;6132352;23;20009;-64
2022/08/31 05:26:52;;;;;;;1.98;1.30;;;;;;;18.12;50.73;102372.25;6133705;23;20017;-64
2022/08/31 05:29:21;;;;;;;6.80;1.65;;;;;;;18.20;50.92;102372.31;6127368;23;20004;-64
2022/08/31 05:31:47;;;;;;;3.65;1.50;;;;;;;18.27;50.99;102375.88;6121353;23;20005;-64
2022/08/31 05:34:13;;;;;;;2.17;1.20;;;;;;;18.32;50.95;102382.94;6146219;23;20307;-64
2022/08/31 05:36:41;;;;;;;1.85;1.10;;;;;;;18.44;51.08;102383.00;6131249;23;20041;-65
2022/08/31 05:39:10;;;;;;;4.63;1.60;;;;;;;18.21;51.88;102382.88;6136745;23;20855;-64
2022/08/31 05:41:37;;;;;;;5.10;1.40;;;;;;;18.22;52.78;102382.03;6127827;23;20016;-65
2022/08/31 05:44:04;;;;;;;3.22;1.60;;;;;;;18.12;53.02;102380.19;6140933;23;20013;-64
2022/08/31 05:46:30;;;;;;;3.47;1.50;;;;;;;18.47;52.64;102377.75;6132663;23;20543;-64
2022/08/31 05:48:55;;;;;;;2.15;1.63;;;;;;;18.52;52.72;102375.13;6127202;23;20013;-65
2022/08/31 05:51:41;;;;;;;2.88;1.38;;;;;;;18.63;52.51;102384.91;6128390;23;20384;-64
2022/08/31 05:54:07;;;;;;;3.47;1.60;;;;;;;18.35;53.01;102380.34;6131713;23;20028;-63
2022/08/31 05:56:33;;;;;;;2.22;1.30;;;;;;;18.53;53.10;102376.91;6133196;23;20016;-63
2022/08/31 05:58:59;;;;;;;2.33;1.30;;;;;;;18.57;52.75;102381.34;6135153;23;20080;-65
2022/08/31 06:01:29;;;;;;;5.38;1.60;;;;;;;18.51;53.07;102383.91;6127950;23;20017;-65
2022/08/31 06:03:55;;;;;;;3.80;1.50;;;;;;;18.63;52.70;102384.00;6129448;23;20029;-69
2022/08/31 06:06:21;;;;;;;2.85;1.35;;;;;;;18.51;53.25;102378.63;6133986;23;20013;-65
2022/08/31 06:08:50;;;;;;;2.30;1.38;;;;;;;18.71;52.71;102387.56;6132160;23;20936;-64
2022/08/31 06:11:18;;;;;;;3.17;1.50;;;;;;;18.57;53.54;102390.16;6143309;23;20033;-65
2022/08/31 06:13:45;;;;;;;2.33;1.23;;;;;;;18.85;53.19;102391.13;6125308;23;20857;-63
2022/08/31 06:16:10;;;;;;;2.88;1.60;;;;;;;18.80;53.25;102394.63;6138438;23;20009;-65
2022/08/31 06:18:49;;;;;;;3.80;1.35;;;;;;;18.98;52.69;102392.94;6128552;23;20071;-64
2022/08/31 06:21:20;;;;;;;6.70;1.63;;;;;;;18.69;53.98;102391.06;6136750;23;20088;-64
2022/08/31 06:23:47;;;;;;;11.65;2.03;;;;;;;18.79;54.00;102399.03;6117237;23;20312;-64
2022/08/31 06:26:15;;;;;;;6.45;1.50;;;;;;;19.02;53.63;102389.44;6142998;23;20080;-64
2022/08/31 06:28:49;;;;;;;4.68;1.70;;;;;;;19.11;53.64;102391.22;6133456;23;20079;-64
2022/08/31 06:31:20;;;;;;;3.60;1.70;;;;;;;19.53;53.01;102398.34;6154787;23;20013;-66
2022/08/31 06:33:47;;;;;;;2.80;1.30;;;;;;;20.38;50.98;102393.00;6121509;23;20039;-65
2022/08/31 06:36:16;;;;;;;2.75;1.30;;;;;;;22.05;46.87;102391.09;6137381;23;20017;-66
2022/08/31 06:38:42;;;;;;;2.30;1.23;;;;;;;23.00;45.11;102395.28;6124012;23;20349;-65
2022/08/31 06:41:26;;;;;;;2.60;1.02;;;;;;;24.11;42.14;102389.94;6134396;23;20472;-65
2022/08/31 06:43:52;;;;;;;;;;;;;;;24.51;41.67;102396.28;6130850;23;20788;-65
2022/08/31 06:46:20;;;;;;;2.80;1.20;;;;;;;25.88;38.90;102393.13;6132085;23;19987;-65
2022/08/31 06:48:46;;;;;;;2.92;1.23;;;;;;;25.68;39.18;102398.97;6156241;23;20009;-66
2022/08/31 06:51:12;;;;;;;5.47;1.20;;;;;;;25.08;39.68;102395.09;6129271;23;20284;-66
2022/08/31 06:53:39;;;;;;;4.00;1.10;;;;;;;26.28;37.46;102401.00;6122849;23;20380;-65
2022/08/31 06:56:07;;;;;;;4.50;1.10;;;;;;;25.48;38.34;102395.91;6139406;23;20013;-65
2022/08/31 06:58:33;;;;;;;2.42;1.00;;;;;;;25.53;38.96;102395.78;6127735;23;20084;-65
2022/08/31 07:01:07;;;;;;;5.68;1.23;;;;;;;25.29;38.97;102397.28;6104150;23;20418;-64
2022/08/31 07:03:35;;;;;;;2.25;1.00;;;;;;;24.96;39.26;102406.91;6099026;23;20039;-64
2022/08/31 07:06:12;;;;;;;1.65;0.90;;;;;;;25.30;38.71;102401.69;6134390;23;20088;-65
2022/08/31 07:08:39;;;;;;;2.00;1.20;;;;;;;27.00;36.08;102397.13;6140318;23;20008;-65
2022/08/31 07:11:11;;;;;;;2.97;1.00;;;;;;;25.49;37.94;102411.03;6108529;23;20079;-64
2022/08/31 07:13:36;;;;;;;3.90;1.00;;;;;;;24.70;40.03;102404.78;6117768;23;20012;-64
2022/08/31 07:16:04;;;;;;;1.75;1.00;;;;;;;25.92;36.80;102407.31;6134197;23;20080;-64
2022/08/31 07:18:30;;;;;;;3.20;0.90;;;;;;;25.25;37.16;102411.63;6135061;23;20005;-65
2022/08/31 07:21:05;;;;;;;6.75;1.10;;;;;;;26.08;36.31;102408.66;6140849;23;20001;-65
2022/08/31 07:23:33;;;;;;;3.50;1.00;;;;;;;26.46;35.01;102405.84;6130403;23;20531;-65
2022/08/31 07:26:06;;;;;;;2.05;1.00;;;;;;;26.62;33.97;102416.97;6096450;23;20017;-65
2022/08/31 07:28:33;;;;;;;1.80;0.80;;;;;;;26.12;34.81;102423.66;6142651;23;20024;-65
2022/08/31 07:31:02;;;;;;;3.08;0.90;;;;;;;26.05;34.81;102406.03;6127684;23;20039;-66
2022/08/31 07:33:33;;;;;;;2.95;0.70;;;;;;;26.63;33.98;102406.22;6110712;23;20102;-65
2022/08/31 07:35:59;;;;;;;3.28;0.90;;;;;;;26.50;34.67;102402.13;6131027;23;20017;-65
2022/08/31 07:43:58;;;;;;;22.35;1.02;;;;;;;25.61;35.69;102400.06;6132960;23;20400;-67
2022/08/31 07:46:29;;;;;;;2.47;0.75;;;;;;;25.35;36.46;102395.34;6139845;23;20005;-66
2022/08/31 07:48:55;;;;;;;1.77;0.80;;;;;;;25.73;36.57;102402.44;6135102;23;20595;-65
2022/08/31 07:51:24;;;;;;;3.90;1.00;;;;;;;27.15;33.10;102403.78;6136304;23;20028;-65
2022/08/31 07:53:51;;;;;;;1.35;0.70;;;;;;;26.80;32.88;102411.06;6130932;23;20435;-65
2022/08/31 07:56:17;;;;;;;4.22;0.88;;;;;;;26.40;33.84;102399.78;6137564;23;20005;-65
2022/08/31 07:58:42;;;;;;;1.48;0.73;;;;;;;26.83;33.07;102408.31;6139761;23;20030;-65
2022/08/31 08:01:08;;;;;;;3.38;0.80;;;;;;;26.58;33.89;102415.31;6128112;23;20024;-66
2022/08/31 08:03:34;;;;;;;8.05;0.90;;;;;;;25.13;36.75;102403.88;6128133;23;20088;-64
2022/08/31 08:05:59;;;;;;;10.63;1.05;;;;;;;24.10;37.46;102405.03;6136715;23;20016;-65
2022/08/31 08:08:24;;;;;;;4.38;0.70;;;;;;;23.76;38.99;102415.44;6162169;23;20009;-65
2022/08/31 08:10:50;;;;;;;1.52;0.82;;;;;;;24.12;39.57;102410.34;6138315;23;20040;-65
2022/08/31 08:13:18;;;;;;;2.13;0.80;;;;;;;23.59;39.67;102412.16;6134456;23;20345;-65
2022/08/31 08:15:43;;;;;;;2.55;0.80;;;;;;;23.07;40.75;102412.03;6129395;23;20701;-65
2022/08/31 08:18:11;;;;;;;2.85;1.00;;;;;;;22.96;41.66;102422.81;6137732;23;20048;-65
2022/08/31 08:20:38;;;;;;;2.72;0.93;;;;;;;23.15;40.06;102417.25;6138599;23;20031;-65
2022/08/31 08:23:15;;;;;;;1.58;0.90;;;;;;;23.77;39.13;102422.50;6141450;23;20012;-65
2022/08/31 08:25:41;;;;;;;5.85;0.90;;;;;;;23.55;38.98;102423.75;6126424;23;20112;-65
2022/08/31 08:28:28;;;;;;;2.13;1.00;;;;;;;23.05;39.15;102421.84;6127929;23;20422;-65
2022/08/31 08:30:59;;;;;;;2.47;1.15;;;;;;;22.82;39.35;102427.44;6131926;23;20009;-66
2022/08/31 08:33:59;;;;;;;2.00;1.00;;;;;;;22.95;39.87;102433.47;6124993;23;20012;-66
2022/08/31 08:36:25;;;;;;;1.30;1.00;;;;;;;22.66;40.64;102418.75;6133320;23;20009;-64
2022/08/31 08:38:53;;;;;;;2.50;0.98;;;;;;;22.71;40.64;102431.97;6130834;23;20015;-66
2022/08/31 08:41:24;;;;;;;3.95;0.90;;;;;;;23.15;39.41;102430.53;6134599;23;20477;-65
2022/08/31 08:43:54;;;;;;;5.65;1.10;;;;;;;22.99;39.49;102421.91;6132672;23;20440;-67
2022/08/31 08:46:59;;;;;;;5.97;1.10;;;;;;;22.40;41.05;102430.56;6161202;23;20160;-67
2022/08/31 08:49:28;;;;;;;4.25;1.00;;;;;;;22.72;41.21;102428.44;6128669;23;20076;-67
2022/08/31 08:51:58;;;;;;;4.18;1.00;;;;;;;22.96;39.93;102441.44;6130231;23;20108;-66
2022/08/31 08:54:30;;;;;;;5.95;0.98;;;;;;;22.97;40.26;102426.38;6133859;23;20535;-65
2022/08/31 08:56:59;;;;;;;3.33;1.10;;;;;;;22.98;39.82;102433.44;6139506;23;20005;-66
2022/08/31 08:59:27;;;;;;;1.63;1.05;;;;;;;23.06;40.47;102421.78;6134817;23;20044;-65
2022/08/31 09:02:00;;;;;;;8.68;1.10;;;;;;;23.18;39.67;102433.16;6110609;23;20063;-66
2022/08/31 09:04:48;;;;;;;1.83;0.90;;;;;;;23.25;39.52;102433.03;6144360;23;20004;-65
2022/08/31 09:07:43;;;;;;;8.43;1.08;;;;;;;23.06;40.18;102442.19;6118242;23;20013;-64
2022/08/31 09:10:21;;;;;;;6.72;1.05;;;;;;;23.36;39.87;102443.56;6129852;23;20001;-65
2022/08/31 09:13:08;;;;;;;2.90;1.20;;;;;;;23.60;40.19;102443.22;6120846;23;20349;-66
2022/08/31 09:15:54;;;;;;;2.25;1.02;;;;;;;23.53;39.45;102446.00;6129354;23;20020;-63
2022/08/31 09:18:54;;;;;;;4.97;1.13;;;;;;;23.67;39.62;102449.28;6137529;23;20012;-64
2022/08/31 09:21:28;;;;;;;3.80;0.98;;;;;;;23.69;40.46;102439.50;6157541;23;20020;-64
2022/08/31 09:24:05;;;;;;;2.08;1.00;;;;;;;24.05;39.54;102443.34;6128016;23;20063;-67
2022/08/31 09:26:57;;;;;;;3.70;1.13;;;;;;;24.17;38.93;102437.78;6138136;23;20005;-67
2022/08/31 09:29:27;;;;;;;4.05;1.00;;;;;;;23.98;39.60;102449.66;6138108;23;20008;-64
2022/08/31 09:32:06;;;;;;;4.05;1.20;;;;;;;24.08;39.89;102438.84;6131610;23;20036;-66
2022/08/31 09:34:40;;;;;;;3.63;0.98;;;;;;;24.61;38.98;102439.63;6137539;23;20009;-65
2022/08/31 09:37:16;;;;;;;4.97;1.20;;;;;;;24.80;38.65;102433.03;6129485;23;20644;-64
2022/08/31 09:39:57;;;;;;;2.00;1.23;;;;;;;24.32;38.59;102428.66;6122085;23;20917;-64
2022/08/31 09:42:32;;;;;;;2.40;1.10;;;;;;;24.48;38.70;102427.44;6128441;23;20009;-65
2022/08/31 09:45:11;;;;;;;4.90;1.17;;;;;;;24.82;38.17;102430.31;6127432;23;20079;-65
2022/08/31 09:47:57;;;;;;;4.32;1.30;;;;;;;24.93;38.50;102423.00;6154567;23;20444;-65
2022/08/31 09:50:34;;;;;;;3.92;1.23;;;;;;;24.96;38.31;102421.13;6136772;23;20009;-65
2022/08/31 09:56:22;;;;;;;2.95;1.20;;;;;;;25.29;37.06;102422.19;6144026;23;20098;-64
2022/08/31 09:59:02;;;;;;;2.25;1.40;;;;;;;24.80;36.89;102425.03;6158613;23;20414;-65
2022/08/31 10:01:47;;;;;;;3.33;1.30;;;;;;;25.50;36.75;102414.53;6125382;23;20096;-67
2022/08/31 10:04:25;;;;;;;4.32;1.23;;;;;;;25.39;36.08;102417.47;6133465;23;20541;-66
2022/08/31 10:07:05;;;;;;;4.03;1.30;;;;;;;25.79;36.05;102410.31;6132445;23;20487;-65
2022/08/31 10:09:37;;;;;;;3.28;1.58;;;;;;;25.63;37.24;102405.34;6156230;23;20500;-64
2022/08/31 10:12:08;;;;;;;4.57;1.30;;;;;;;25.53;36.63;102422.50;6126451;23;20009;-66
2022/08/31 10:14:49;;;;;;;1.90;1.20;;;;;;;25.63;36.41;102406.25;6134606;23;20016;-66
2022/08/31 10:17:26;;;;;;;3.95;1.30;;;;;;;25.24;37.41;102404.50;6138511;23;20059;-66
2022/08/31 10:20:08;;;;;;;8.45;1.70;;;;;;;25.41;37.20;102400.53;6138420;23;20013;-66
2022/08/31 10:22:41;;;;;;;8.23;1.48;;;;;;;25.90;36.62;102395.78;6137445;23;20074;-65
2022/08/31 10:25:40;;;;;;;4.85;1.30;;;;;;;25.54;36.08;102402.91;6151080;23;20032;-65
2022/08/31 10:28:37;;;;;;;7.60;1.55;;;;;;;24.94;36.92;102406.09;6135097;23;20345;-65
2022/08/31 10:31:13;;;;;;;4.03;1.45;;;;;;;25.55;37.09;102393.97;6133936;23;20013;-66
2022/08/31 10:36:36;;;;;;;3.53;1.30;;;;;;;26.24;35.85;102394.84;6139173;23;20031;-63
2022/08/31 10:39:43;;;;;;;5.85;1.50;;;;;;;25.56;36.09;102396.59;6137098;23;20540;-64
2022/08/31 10:42:20;;;;;;;3.50;1.52;;;;;;;25.42;37.19;102385.38;6038479;23;20015;-71
2022/08/31 10:44:56;;;;;;;4.35;1.75;;;;;;;25.20;37.18;102392.13;6066525;23;20105;-72
2022/08/31 10:47:29;;;;;;;2.90;1.58;;;;;;;25.41;36.71;102392.50;6140554;23;20013;-69
2022/08/31 10:49:57;;;;;;;4.47;1.60;;;;;;;25.35;36.43;102389.13;6119648;23;20009;-68
2022/08/31 10:52:41;;;;;;;4.05;1.70;;;;;;;25.25;37.15;102392.94;6136329;23;20008;-69
2022/08/31 10:55:13;;;;;;;;;;;;;;;24.74;37.29;102378.94;6137883;23;20016;-70
2022/08/31 10:58:03;;;;;;;6.65;1.60;;;;;;;25.19;37.75;102385.06;6132372;23;19926;-70
2022/08/31 11:00:55;;;;;;;4.95;1.70;;;;;;;25.10;37.82;102387.94;6130699;23;20892;-70
2022/08/31 11:03:35;;;;;;;5.22;1.60;;;;;;;24.98;38.49;102394.44;6142153;23;20463;-71
2022/08/31 11:06:11;;;;;;;2.88;1.55;;;;;;;25.22;38.18;102387.66;6159797;23;20091;-70
2022/08/31 11:09:33;;;;;;;2.28;1.38;;;;;;;25.51;38.12;102384.25;6136331;23;20408;-65
2022/08/31 11:12:56;;;;;;;9.70;1.60;;;;;;;26.20;36.32;102385.13;6160678;23;20143;-70
2022/08/31 11:15:55;;;;;;;3.38;1.70;;;;;;;25.70;36.77;102388.25;6135793;23;20889;-73
2022/08/31 11:18:24;;;;;;;6.18;1.80;;;;;;;25.78;37.07;102397.84;6136973;23;20013;-67
2022/08/31 11:21:19;;;;;;;6.35;1.70;;;;;;;25.43;38.09;102379.97;6157058;23;20519;-69
2022/08/31 11:24:00;;;;;;;5.78;1.67;;;;;;;25.58;38.08;102388.56;6127066;23;20005;-68
2022/08/31 11:26:44;;;;;;;5.18;1.67;;;;;;;25.32;37.96;102395.38;6142491;23;20024;-67
2022/08/31 11:29:40;;;;;;;9.77;1.70;;;;;;;25.69;38.17;102389.19;6139839;23;20005;-68
2022/08/31 11:32:33;;;;;;;7.40;1.70;;;;;;;25.97;37.78;102384.00;6139699;23;20091;-69
2022/08/31 11:35:07;;;;;;;6.15;1.77;;;;;;;25.58;38.72;102389.44;6141831;23;20009;-70
2022/08/31 11:37:50;;;;;;;5.88;1.90;;;;;;;24.91;38.65;102380.34;6127658;23;20040;-68
2022/08/31 11:40:40;;;;;;;5.30;1.77;;;;;;;25.54;38.35;102379.75;6139285;23;20013;-72
2022/08/31 11:43:07;;;;;;;5.38;1.67;;;;;;;25.04;38.40;102372.94;6135924;23;20649;-71
2022/08/31 11:45:36;;;;;;;9.80;1.85;;;;;;;25.57;37.36;102371.66;6137546;23;20084;-70
2022/08/31 11:48:12;;;;;;;3.53;1.48;;;;;;;25.89;36.82;102354.81;6131236;23;20013;-70
2022/08/31 11:50:38;;;;;;;3.72;1.50;;;;;;;25.30;38.93;102359.88;6141691;23;20039;-69
2022/08/31 11:53:33;;;;;;;3.20;1.65;;;;;;;25.28;37.80;102353.69;6135430;23;20029;-70
2022/08/31 11:56:02;;;;;;;6.03;1.40;;;;;;;25.29;37.91;102360.78;6135546;23;20035;-68
2022/08/31 11:58:34;;;;;;;4.78;1.60;;;;;;;25.47;36.29;102359.44;6138662;23;20015;-68
2022/08/31 12:01:08;;;;;;;4.13;1.70;;;;;;;25.56;34.85;102360.97;6128648;23;20005;-68